Time;durP1;ratioP1;P1;durP2;ratioP2;P2;SDS_P1;SDS_P2;PMS_P1;PMS_P2;Temp;Humidity;BMP_temperature;BMP_pressure;BME280_temperature;BME280_humidity;BME280_pressure;Samples;Min_cycle;Max_cycle;Signal;HPM_P1;HPM_P2
2023/12/25 00:00:25;;;;;;;1.00;0.83;;;;;;;-143.84;51.32;45151.91;5087769;28;20436;-57
2023/12/25 00:02:52;;;;;;;0.80;0.40;;;;;;;-143.84;51.15;45125.22;5087634;28;20428;-57
2023/12/25 00:05:19;;;;;;;0.80;0.60;;;;;;;-143.84;50.79;45150.00;5087893;28;20516;-57
2023/12/25 00:07:46;;;;;;;1.00;0.50;;;;;;;-143.84;50.55;45165.22;5087508;28;20432;-57
2023/12/25 00:10:13;;;;;;;0.80;0.50;;;;;;;-143.84;50.45;45165.22;5087442;28;20482;-57
2023/12/25 00:12:41;;;;;;;0.80;0.40;;;;;;;-143.84;50.60;45142.38;5088360;28;20978;-57
2023/12/25 00:15:10;;;;;;;0.80;0.40;;;;;;;-143.84;50.16;45151.91;5088432;28;20436;-57
2023/12/25 00:17:37;;;;;;;0.80;0.40;;;;;;;-143.84;50.47;45138.56;5088545;28;20455;-57
2023/12/25 00:20:05;;;;;;;0.80;0.40;;;;;;;-143.84;50.19;45140.47;5105679;28;20527;-57
2023/12/25 00:22:32;;;;;;;0.80;0.40;;;;;;;-143.84;50.20;45155.69;5108999;28;20495;-57
2023/12/25 00:24:59;;;;;;;0.80;0.43;;;;;;;-143.84;50.33;45125.22;5108379;28;20475;-57
2023/12/25 00:27:26;;;;;;;0.80;0.40;;;;;;;-143.84;50.13;45148.09;5108466;28;20468;-57
2023/12/25 00:29:55;;;;;;;0.80;0.50;;;;;;;-143.84;50.22;45151.91;5108502;28;20449;-57
2023/12/25 00:32:22;;;;;;;0.97;0.60;;;;;;;-143.84;50.34;45153.81;5108678;28;20447;-57
2023/12/25 00:34:49;;;;;;;1.63;0.90;;;;;;;-143.84;50.49;45142.38;5108542;28;20475;-57
2023/12/25 00:37:17;;;;;;;2.40;1.13;;;;;;;-143.84;50.85;45138.56;5109054;28;20434;-57
2023/12/25 00:39:44;;;;;;;0.80;0.50;;;;;;;-143.84;50.97;45144.28;5112304;28;20500;-57
2023/12/25 00:42:11;;;;;;;0.80;0.40;;;;;;;-143.84;51.32;45159.50;5112170;28;20501;-57
2023/12/25 00:44:38;;;;;;;0.80;0.40;;;;;;;-143.84;51.37;45148.09;5112202;28;20527;-57
2023/12/25 00:47:06;;;;;;;0.80;0.40;;;;;;;-143.84;51.95;45140.47;5112278;28;20442;-57
2023/12/25 00:49:34;;;;;;;0.80;0.50;;;;;;;-143.84;51.88;45167.13;5112218;28;20515;-57
2023/12/25 00:52:01;;;;;;;0.80;0.50;;;;;;;-143.84;51.98;45146.19;5112039;28;20533;-57
2023/12/25 00:54:31;;;;;;;0.80;0.40;;;;;;;-143.84;52.01;45151.91;5112138;28;21271;-57
2023/12/25 00:56:58;;;;;;;0.80;0.60;;;;;;;-143.84;52.04;45144.28;5111726;28;20502;-57
2023/12/25 00:59:25;;;;;;;0.80;0.40;;;;;;;-143.84;52.04;45140.47;5111784;28;20500;-57
2023/12/25 01:01:52;;;;;;;0.80;0.57;;;;;;;-143.84;51.96;45150.00;5112030;28;20500;-57
2023/12/25 01:04:21;;;;;;;0.80;0.40;;;;;;;-143.84;51.87;45113.81;5112013;28;20475;-57
2023/12/25 01:06:48;;;;;;;0.80;0.60;;;;;;;-143.84;52.04;45136.66;5112069;28;20439;-57
2023/12/25 01:09:15;;;;;;;0.80;0.40;;;;;;;-143.84;52.00;45121.44;5112237;28;21288;-57
2023/12/25 01:11:43;;;;;;;3.53;1.17;;;;;;;-143.84;52.21;45123.34;5111838;28;20443;-57
2023/12/25 01:14:10;;;;;;;0.80;0.50;;;;;;;-143.84;52.18;45123.34;5101943;28;20509;-57
2023/12/25 01:16:39;;;;;;;0.80;0.40;;;;;;;-143.84;52.39;45150.00;5091405;28;20493;-57
2023/12/25 01:19:06;;;;;;;0.80;0.60;;;;;;;-143.84;52.48;45127.13;5091162;28;20447;-57
2023/12/25 01:21:35;;;;;;;0.80;0.50;;;;;;;-143.84;53.21;45146.19;5091550;28;20505;-57
2023/12/25 01:24:02;;;;;;;0.80;0.40;;;;;;;-143.84;53.19;45146.19;5091146;28;21018;-57
2023/12/25 01:26:30;;;;;;;0.80;0.50;;;;;;;-143.84;53.21;45132.84;5091064;28;20525;-57
2023/12/25 01:28:57;;;;;;;0.80;0.43;;;;;;;-143.84;53.25;45151.91;5091216;28;20432;-57
2023/12/25 01:31:24;;;;;;;0.80;0.47;;;;;;;-143.84;53.95;45140.47;5091165;28;20436;-57
2023/12/25 01:33:51;;;;;;;0.80;0.40;;;;;;;-143.84;54.07;45136.66;5091077;28;20946;-57
2023/12/25 01:36:19;;;;;;;0.80;0.50;;;;;;;-143.84;54.30;45157.59;5090938;28;20497;-57
2023/12/25 01:38:47;;;;;;;1.10;0.60;;;;;;;-143.84;54.33;45140.47;5090921;28;20436;-57
2023/12/25 01:41:14;;;;;;;1.43;0.70;;;;;;;-143.84;54.46;45153.81;5090572;28;20501;-57
2023/12/25 01:43:42;;;;;;;0.80;0.50;;;;;;;-143.84;54.36;45151.91;5090702;28;20480;-57
2023/12/25 01:46:13;;;;;;;0.80;0.60;;;;;;;-143.84;54.47;45150.00;5090800;28;20444;-57
2023/12/25 01:48:41;;;;;;;0.80;0.40;;;;;;;-143.84;54.66;45144.28;5090735;28;20435;-57
2023/12/25 01:51:08;;;;;;;0.80;0.50;;;;;;;-143.84;54.55;45129.03;5089926;28;20436;-57
2023/12/25 01:53:36;;;;;;;0.80;0.50;;;;;;;-143.84;54.38;45169.03;5090494;28;20436;-57
2023/12/25 01:56:05;;;;;;;0.80;0.50;;;;;;;-143.84;54.50;45140.47;5090516;28;20500;-57
2023/12/25 01:58:32;;;;;;;0.80;0.40;;;;;;;-143.84;54.57;45163.31;5090589;28;20949;-57
2023/12/25 02:00:59;;;;;;;0.80;0.50;;;;;;;-143.84;54.92;45155.69;5090537;28;20505;-57
2023/12/25 02:03:26;;;;;;;1.20;1.00;;;;;;;-143.84;54.93;45153.81;5092468;28;20451;-57
2023/12/25 02:05:54;;;;;;;0.80;0.50;;;;;;;-143.84;54.54;45140.47;5101398;28;20468;-57
2023/12/25 02:08:21;;;;;;;1.47;0.70;;;;;;;-143.84;54.21;45123.34;5090224;28;20500;-57
2023/12/25 02:10:48;;;;;;;0.80;0.50;;;;;;;-143.84;54.06;45136.66;5090283;28;20474;-57
2023/12/25 02:13:17;;;;;;;0.80;0.40;;;;;;;-143.84;54.28;45161.41;5090244;28;20436;-57
2023/12/25 02:15:44;;;;;;;0.80;0.50;;;;;;;-143.84;54.26;45161.41;5091116;28;20460;-57
2023/12/25 02:18:12;;;;;;;0.80;0.50;;;;;;;-143.84;54.40;45142.38;5092657;28;20440;-57
2023/12/25 02:20:39;;;;;;;0.97;0.87;;;;;;;-143.84;54.43;45140.47;5092273;28;20497;-57
2023/12/25 02:23:09;;;;;;;0.90;0.73;;;;;;;-143.84;54.42;45169.03;5092496;28;20489;-57
2023/12/25 02:25:47;;;;;;;1.10;0.90;;;;;;;-143.84;54.68;45140.47;5092252;28;20529;-57
2023/12/25 02:28:14;;;;;;;1.30;1.17;;;;;;;-143.84;54.88;45159.50;5092195;28;20445;-57
2023/12/25 02:30:41;;;;;;;0.80;0.50;;;;;;;-143.84;55.08;45140.47;5092268;28;20906;-57
2023/12/25 02:33:08;;;;;;;1.43;1.33;;;;;;;-143.84;55.14;45138.56;5092255;28;20435;-57
2023/12/25 02:35:35;;;;;;;0.80;0.43;;;;;;;-143.84;55.37;45146.19;5092077;28;20593;-57
2023/12/25 02:38:02;;;;;;;1.03;0.93;;;;;;;-143.84;55.14;45125.22;5091936;28;20431;-57
2023/12/25 02:40:29;;;;;;;0.80;0.50;;;;;;;-143.84;55.02;45138.56;5092412;28;20516;-57
2023/12/25 02:42:58;;;;;;;0.80;0.40;;;;;;;-143.84;55.30;45148.09;5091868;28;20493;-57
2023/12/25 02:45:25;;;;;;;1.20;1.00;;;;;;;-143.84;55.43;45125.22;5091624;28;20472;-57
2023/12/25 02:47:52;;;;;;;0.80;0.57;;;;;;;-143.84;55.20;45170.94;5092330;28;20440;-57
2023/12/25 02:50:19;;;;;;;0.90;0.60;;;;;;;-143.84;55.31;45117.63;5092408;28;20432;-57
2023/12/25 02:52:46;;;;;;;0.80;0.40;;;;;;;-143.84;55.25;45138.56;5091625;28;20436;-57
2023/12/25 02:55:13;;;;;;;0.80;0.50;;;;;;;-143.84;55.39;45132.84;5091894;28;20443;-57
2023/12/25 02:57:40;;;;;;;0.80;0.40;;;;;;;-143.84;55.34;45150.00;5091511;28;20494;-57
2023/12/25 03:00:10;;;;;;;7.03;0.80;;;;;;;-143.84;55.07;45144.28;5091777;28;20444;-57
2023/12/25 03:02:38;;;;;;;0.80;0.40;;;;;;;-143.84;55.28;45130.94;5090626;28;20490;-57
2023/12/25 03:05:05;;;;;;;1.10;0.97;;;;;;;-143.84;55.20;45140.47;5091783;28;20548;-57
2023/12/25 03:07:32;;;;;;;0.80;0.40;;;;;;;-143.84;55.20;45150.00;5092036;28;20444;-57
2023/12/25 03:10:00;;;;;;;0.80;0.50;;;;;;;-143.84;54.97;45155.69;5091664;28;20428;-57
2023/12/25 03:12:27;;;;;;;1.10;0.80;;;;;;;-143.84;54.53;45148.09;5091512;28;20788;-57
2023/12/25 03:14:54;;;;;;;0.80;0.50;;;;;;;-143.84;54.75;45144.28;5091488;28;20496;-57
2023/12/25 03:17:23;;;;;;;0.80;0.40;;;;;;;-143.84;54.66;45150.00;5091624;28;20444;-57
2023/12/25 03:19:50;;;;;;;0.90;0.67;;;;;;;-143.84;54.53;45151.91;5091367;28;20447;-57
2023/12/25 03:22:17;;;;;;;1.30;0.80;;;;;;;-143.84;54.07;45142.38;5091465;28;21011;-57
2023/12/25 03:24:44;;;;;;;0.80;0.50;;;;;;;-143.84;53.87;45148.09;5091781;28;20463;-57
2023/12/25 03:27:11;;;;;;;0.90;0.80;;;;;;;-143.84;53.74;45132.84;5091627;28;20500;-57
2023/12/25 03:29:38;;;;;;;0.80;0.50;;;;;;;-143.84;53.47;45144.28;5091211;28;20432;-57
2023/12/25 03:32:06;;;;;;;0.80;0.47;;;;;;;-143.84;53.22;45121.44;5091394;28;20428;-57
2023/12/25 03:34:46;;;;;;;0.80;0.50;;;;;;;-143.84;53.41;45144.28;5091043;28;20472;-57
2023/12/25 03:37:13;;;;;;;0.80;0.40;;;;;;;-143.84;52.87;45142.38;5091023;28;20432;-57
2023/12/25 03:39:40;;;;;;;0.80;0.40;;;;;;;-143.84;52.68;45140.47;5091100;28;20444;-57
2023/12/25 03:42:07;;;;;;;0.80;0.53;;;;;;;-143.84;52.86;45142.38;5090783;28;20444;-57
2023/12/25 03:44:34;;;;;;;0.80;0.63;;;;;;;-143.84;52.65;45142.38;5090970;28;20463;-57
2023/12/25 03:47:02;;;;;;;2.73;1.07;;;;;;;-143.84;52.31;45150.00;5090934;28;20435;-57
2023/12/25 03:49:29;;;;;;;1.20;0.70;;;;;;;-143.84;52.09;45146.19;5090962;28;20436;-57
2023/12/25 03:51:58;;;;;;;0.80;0.47;;;;;;;-143.84;51.75;45132.84;5090878;28;20861;-57
2023/12/25 03:54:25;;;;;;;0.80;0.40;;;;;;;-143.84;51.91;45129.03;5090993;28;20795;-57
2023/12/25 03:56:52;;;;;;;0.87;0.67;;;;;;;-143.84;52.01;45148.09;5091117;28;20496;-57
2023/12/25 03:59:19;;;;;;;0.83;0.57;;;;;;;-143.84;51.96;45150.00;5091076;28;20451;-57
2023/12/25 04:01:47;;;;;;;0.90;0.77;;;;;;;-143.84;52.04;45130.94;5091286;28;20474;-57
2023/12/25 04:04:14;;;;;;;0.80;0.50;;;;;;;-143.84;51.66;45134.75;5090675;28;20489;-57
2023/12/25 04:06:41;;;;;;;1.30;0.90;;;;;;;-143.84;51.88;45148.09;5090824;28;20501;-57
2023/12/25 04:09:09;;;;;;;0.80;0.50;;;;;;;-143.84;51.86;45142.38;5090678;28;20485;-57
2023/12/25 04:11:36;;;;;;;0.80;0.40;;;;;;;-143.84;51.82;45146.19;5090762;28;21108;-57
2023/12/25 04:14:03;;;;;;;0.80;0.57;;;;;;;-143.84;51.48;45136.66;5091964;28;20497;-57
2023/12/25 04:16:31;;;;;;;0.80;0.50;;;;;;;-143.84;51.33;45140.47;5092336;28;20443;-57
2023/12/25 04:18:58;;;;;;;0.90;0.67;;;;;;;-143.84;51.31;45130.94;5091607;28;21265;-57
2023/12/25 04:21:26;;;;;;;0.87;0.50;;;;;;;-143.84;51.21;45142.38;5091834;28;20431;-57
2023/12/25 04:23:54;;;;;;;1.10;0.70;;;;;;;-143.84;51.12;45121.44;5092309;28;20508;-57
2023/12/25 04:26:23;;;;;;;0.80;0.40;;;;;;;-143.84;50.52;45129.03;5091857;28;20532;-57
2023/12/25 04:28:51;;;;;;;0.80;0.40;;;;;;;-143.84;50.47;45144.28;5091840;28;20443;-57
2023/12/25 04:31:19;;;;;;;0.80;0.40;;;;;;;-143.84;50.38;45153.81;5092252;28;20436;-57
2023/12/25 04:33:46;;;;;;;0.80;0.40;;;;;;;-143.84;50.13;45125.22;5091871;28;20491;-57
2023/12/25 04:36:13;;;;;;;0.80;0.40;;;;;;;-143.84;49.98;45148.09;5092020;28;20447;-57
2023/12/25 04:38:41;;;;;;;1.00;0.70;;;;;;;-143.84;50.13;45138.56;5092062;28;20485;-57
2023/12/25 04:41:08;;;;;;;0.90;0.60;;;;;;;-143.84;49.79;45134.75;5092016;28;20447;-57
2023/12/25 04:43:37;;;;;;;0.80;0.50;;;;;;;-143.84;49.37;45130.94;5091938;28;20492;-57
2023/12/25 04:46:05;;;;;;;0.90;0.60;;;;;;;-143.84;49.61;45148.09;5091897;28;21077;-57
2023/12/25 04:48:32;;;;;;;0.80;0.50;;;;;;;-143.84;49.48;45136.66;5090021;28;20521;-59
2023/12/25 04:51:00;;;;;;;0.90;0.70;;;;;;;-143.84;49.50;45134.75;5091602;28;20440;-59
2023/12/25 04:53:29;;;;;;;1.40;0.87;;;;;;;-143.84;49.22;45129.03;5091418;28;20444;-59
2023/12/25 04:55:56;;;;;;;0.80;0.50;;;;;;;-143.84;49.32;45140.47;5091087;28;20505;-59
2023/12/25 04:58:23;;;;;;;1.17;0.90;;;;;;;-143.84;49.26;45140.47;5091598;28;20436;-59
2023/12/25 05:00:52;;;;;;;0.87;0.70;;;;;;;-143.84;48.98;45130.94;5091537;28;20509;-59
2023/12/25 05:03:21;;;;;;;0.80;0.50;;;;;;;-143.84;49.32;45169.03;5091347;28;20501;-59
2023/12/25 05:05:48;;;;;;;0.80;0.50;;;;;;;-143.84;49.24;45138.56;5091222;28;21028;-59
2023/12/25 05:08:15;;;;;;;0.80;0.50;;;;;;;-143.84;49.17;45138.56;5091027;28;20436;-59
2023/12/25 05:10:43;;;;;;;0.90;0.40;;;;;;;-143.84;49.09;45134.75;5090607;28;20424;-59
2023/12/25 05:13:10;;;;;;;2.03;0.60;;;;;;;-143.84;49.39;45125.22;5091576;28;20458;-59
2023/12/25 05:15:37;;;;;;;0.80;0.50;;;;;;;-143.84;48.77;45144.28;5091142;28;20505;-58
2023/12/25 05:18:05;;;;;;;0.80;0.40;;;;;;;-143.84;49.15;45146.19;5090934;28;20497;-59
2023/12/25 05:20:33;;;;;;;1.30;1.20;;;;;;;-143.84;48.72;45148.09;5091366;28;20525;-59
2023/12/25 05:23:00;;;;;;;0.90;0.60;;;;;;;-143.84;48.89;45121.44;5091192;28;20565;-58
2023/12/25 05:25:27;;;;;;;1.43;0.80;;;;;;;-143.84;48.46;45130.94;5089447;28;20482;-59
2023/12/25 05:27:54;;;;;;;0.90;0.70;;;;;;;-143.84;48.20;45140.47;5091018;28;20528;-59
2023/12/25 05:30:21;;;;;;;1.10;0.70;;;;;;;-143.84;48.54;45144.28;5091165;28;20547;-59
2023/12/25 05:32:48;;;;;;;0.90;0.50;;;;;;;-143.84;47.86;45132.84;5091494;28;21277;-59
2023/12/25 05:35:17;;;;;;;0.80;0.60;;;;;;;-143.84;47.97;45140.47;5090958;28;20545;-59
2023/12/25 05:37:44;;;;;;;0.80;0.40;;;;;;;-143.84;47.50;45129.03;5091073;28;20448;-58
2023/12/25 05:40:12;;;;;;;1.67;0.77;;;;;;;-143.84;47.69;45159.50;5090355;28;20501;-59
2023/12/25 05:42:39;;;;;;;0.80;0.60;;;;;;;-143.84;47.66;45125.22;5090806;28;20447;-59
2023/12/25 05:45:08;;;;;;;0.90;0.60;;;;;;;-143.84;47.57;45110.00;5090676;28;20547;-59
2023/12/25 05:47:35;;;;;;;1.33;1.23;;;;;;;-143.84;47.46;45134.75;5090761;28;20436;-58
2023/12/25 05:50:02;;;;;;;0.80;0.40;;;;;;;-143.84;47.09;45129.03;5090368;28;20496;-58
2023/12/25 05:52:30;;;;;;;0.80;0.40;;;;;;;-143.84;47.06;45129.03;5090781;28;20428;-58
2023/12/25 05:54:58;;;;;;;0.80;0.60;;;;;;;-143.84;47.12;45136.66;5089835;28;20498;-59
2023/12/25 05:57:25;;;;;;;0.90;0.70;;;;;;;-143.84;47.22;45127.13;5090122;28;20444;-58
2023/12/25 05:59:52;;;;;;;0.80;0.40;;;;;;;-143.84;46.86;45132.84;5090171;28;20444;-59
2023/12/25 06:02:20;;;;;;;0.80;0.57;;;;;;;-143.84;47.23;45136.66;5089851;28;20425;-59
2023/12/25 06:04:47;;;;;;;1.33;1.23;;;;;;;-143.84;47.05;45142.38;5090000;28;20443;-59
2023/12/25 06:07:14;;;;;;;2.40;1.10;;;;;;;-143.84;47.03;45125.22;5090241;28;20440;-59
2023/12/25 06:09:43;;;;;;;0.80;0.47;;;;;;;-143.84;47.15;45130.94;5090292;28;20427;-59
2023/12/25 06:12:10;;;;;;;0.80;0.40;;;;;;;-143.84;46.63;45134.75;5089864;28;20447;-59
2023/12/25 06:14:37;;;;;;;1.00;0.90;;;;;;;-143.84;46.80;45123.34;5089811;28;20455;-59
2023/12/25 06:17:05;;;;;;;0.80;0.50;;;;;;;-143.84;46.34;45110.00;5089588;28;20440;-58
2023/12/25 06:19:32;;;;;;;1.27;1.17;;;;;;;-143.84;46.44;45146.19;5089818;28;20519;-58
2023/12/25 06:21:59;;;;;;;0.83;0.53;;;;;;;-143.84;46.10;45089.06;5089714;28;20443;-59
2023/12/25 06:24:26;;;;;;;0.80;0.47;;;;;;;-143.84;45.92;45110.00;5090034;28;20493;-59
2023/12/25 06:26:55;;;;;;;0.93;0.77;;;;;;;-143.84;45.79;45130.94;5089057;28;20479;-59
2023/12/25 06:29:22;;;;;;;0.80;0.50;;;;;;;-143.84;45.95;45144.28;5089549;28;20440;-58
2023/12/25 06:31:49;;;;;;;0.80;0.50;;;;;;;-143.84;45.76;45117.63;5089607;28;20447;-59
2023/12/25 06:34:17;;;;;;;0.80;0.50;;;;;;;-143.84;45.52;45134.75;5089320;28;20492;-59
2023/12/25 06:36:44;;;;;;;1.10;0.73;;;;;;;-143.84;45.58;45123.34;5089433;28;20490;-59
2023/12/25 06:39:11;;;;;;;1.57;0.80;;;;;;;-143.84;45.50;45119.53;5089404;28;20425;-59
2023/12/25 06:41:38;;;;;;;2.73;0.83;;;;;;;-143.84;45.73;45125.22;5089147;28;20427;-58
2023/12/25 06:44:07;;;;;;;2.07;0.70;;;;;;;-143.84;45.38;45121.44;5089239;28;20842;-58
2023/12/25 06:46:35;;;;;;;0.80;0.60;;;;;;;-143.84;45.35;45127.13;5089323;28;20506;-59
2023/12/25 06:49:03;;;;;;;0.80;0.60;;;;;;;-143.84;45.75;45130.94;5089208;28;20440;-59
2023/12/25 06:51:30;;;;;;;1.10;1.00;;;;;;;-143.84;45.66;45136.66;5089452;28;20957;-58
2023/12/25 06:53:57;;;;;;;1.13;0.70;;;;;;;-143.84;45.60;45083.34;5089299;28;20437;-58
2023/12/25 06:56:24;;;;;;;1.47;1.00;;;;;;;-143.84;45.41;45125.22;5088757;28;20949;-59
2023/12/25 06:58:51;;;;;;;0.80;0.50;;;;;;;-143.84;45.66;45134.75;5089286;28;20466;-58
2023/12/25 07:01:24;;;;;;;1.23;1.13;;;;;;;-143.84;45.78;45136.66;5089085;28;20436;-59
2023/12/25 07:03:51;;;;;;;0.80;0.50;;;;;;;-143.84;45.67;45106.19;5089064;28;20832;-59
2023/12/25 07:06:18;;;;;;;0.80;0.47;;;;;;;-143.84;45.43;45136.66;5099757;28;20467;-59
2023/12/25 07:08:45;;;;;;;0.80;0.40;;;;;;;-143.84;45.56;45127.13;5100770;28;20498;-59
2023/12/25 07:11:13;;;;;;;0.90;0.73;;;;;;;-143.84;45.72;45123.34;5088307;28;20964;-59
2023/12/25 07:13:42;;;;;;;1.13;1.03;;;;;;;-143.84;45.52;45127.13;5088880;28;20439;-59
2023/12/25 07:16:09;;;;;;;0.90;0.70;;;;;;;-143.84;46.25;45113.81;5088877;28;20941;-59
2023/12/25 07:18:37;;;;;;;1.00;0.50;;;;;;;-143.84;46.00;45121.44;5089035;28;20771;-59
2023/12/25 07:21:05;;;;;;;0.80;0.50;;;;;;;-143.84;46.22;45117.63;5088767;28;20429;-59
2023/12/25 07:23:33;;;;;;;2.13;1.93;;;;;;;-143.84;46.08;45123.34;5091461;28;20515;-59
2023/12/25 07:26:00;;;;;;;0.80;0.50;;;;;;;-143.84;46.13;45127.13;5090908;28;20559;-59
2023/12/25 07:28:27;;;;;;;0.80;0.50;;;;;;;-143.84;46.47;45125.22;5091492;28;20936;-59
2023/12/25 07:30:54;;;;;;;0.90;0.57;;;;;;;-143.84;46.55;45108.09;5100290;28;20450;-59
2023/12/25 07:33:21;;;;;;;0.80;0.50;;;;;;;-143.84;46.63;45127.13;5108726;28;20435;-59
2023/12/25 07:35:50;;;;;;;0.97;0.87;;;;;;;-143.84;46.82;45144.28;5100862;28;20463;-58
2023/12/25 07:38:17;;;;;;;1.53;1.43;;;;;;;-143.84;46.87;45132.84;5099113;28;20600;-59
2023/12/25 07:40:44;;;;;;;0.90;0.67;;;;;;;-143.84;47.00;45119.53;5098283;28;20805;-59
2023/12/25 07:43:12;;;;;;;0.80;0.40;;;;;;;-143.84;47.23;45127.13;5105535;28;20431;-59
2023/12/25 07:45:39;;;;;;;2.97;1.33;;;;;;;-143.84;47.07;45125.22;5108616;28;20845;-59
2023/12/25 07:48:06;;;;;;;0.93;0.60;;;;;;;-143.84;47.05;45134.75;5112488;28;20995;-59
2023/12/25 07:50:34;;;;;;;0.87;0.60;;;;;;;-143.84;47.18;45138.56;5115672;28;21109;-59
2023/12/25 07:53:04;;;;;;;0.80;0.43;;;;;;;-143.84;46.86;45113.81;5114076;28;20963;-59
2023/12/25 07:55:33;;;;;;;0.80;0.50;;;;;;;-143.84;47.27;45136.66;5114792;28;20459;-58
2023/12/25 07:58:00;;;;;;;1.03;0.93;;;;;;;-143.84;47.14;45142.38;5115317;28;20438;-59
2023/12/25 08:00:28;;;;;;;1.10;1.00;;;;;;;-143.84;46.93;45121.44;5115466;28;21124;-59
2023/12/25 08:40:59;;;;;;;0.90;0.73;;;;;;;-143.84;47.71;45130.94;5094649;28;20509;-58
2023/12/25 08:43:27;;;;;;;1.13;1.03;;;;;;;-143.84;47.85;45138.56;5094293;28;21023;-58
2023/12/25 08:45:54;;;;;;;6.40;1.43;;;;;;;-143.84;47.18;45129.03;5093736;28;20479;-57
2023/12/25 08:48:21;;;;;;;0.80;0.57;;;;;;;-143.84;46.81;45130.94;5093899;28;20439;-57
2023/12/25 08:50:48;;;;;;;2.30;0.93;;;;;;;-143.84;46.89;45125.22;5094468;28;20462;-57
2023/12/25 08:53:15;;;;;;;1.63;1.47;;;;;;;-143.84;45.80;45100.47;5094062;28;20913;-58
2023/12/25 08:55:42;;;;;;;0.90;0.70;;;;;;;-143.84;45.10;45113.81;5093959;28;20446;-57
2023/12/25 08:58:11;;;;;;;3.80;1.17;;;;;;;-143.84;44.75;45102.38;5094485;28;20432;-57
2023/12/25 09:00:38;;;;;;;0.90;0.70;;;;;;;-143.84;44.48;45123.34;5091320;28;20444;-58
2023/12/25 09:03:06;;;;;;;1.33;1.23;;;;;;;-143.84;44.63;45100.47;5091345;28;20432;-58
2023/12/25 09:05:34;;;;;;;0.90;0.70;;;;;;;-143.84;45.54;45115.72;5090725;28;20945;-57
2023/12/25 09:08:01;;;;;;;1.63;0.90;;;;;;;-143.84;44.79;45096.66;5091199;28;20470;-57
2023/12/25 09:10:28;;;;;;;1.33;0.87;;;;;;;-143.84;44.54;45117.63;5091475;28;20428;-57
2023/12/25 09:12:55;;;;;;;0.90;0.70;;;;;;;-143.84;44.15;45136.66;5090377;28;20479;-58
2023/12/25 09:15:24;;;;;;;1.63;1.47;;;;;;;-143.84;44.23;45117.63;5087685;28;21253;-58
2023/12/25 09:17:51;;;;;;;0.90;0.70;;;;;;;-143.84;44.17;45104.28;5091178;28;20444;-57
2023/12/25 09:20:18;;;;;;;1.47;1.17;;;;;;;-143.84;43.13;45117.63;5091296;28;20475;-57
2023/12/25 09:22:46;;;;;;;1.20;0.93;;;;;;;-143.84;43.62;45098.56;5091233;28;21135;-58
2023/12/25 09:25:14;;;;;;;1.67;1.57;;;;;;;-143.84;42.66;45102.38;5090947;28;20444;-57
2023/12/25 09:27:41;;;;;;;1.17;0.93;;;;;;;-143.84;42.45;45096.66;5087056;28;20572;-57
2023/12/25 09:30:09;;;;;;;0.90;0.60;;;;;;;-143.84;44.83;45113.81;5090556;28;20455;-57
2023/12/25 09:32:38;;;;;;;0.90;0.57;;;;;;;-143.84;43.06;45104.28;5088963;28;20505;-56
2023/12/25 09:35:08;;;;;;;1.00;0.50;;;;;;;-143.84;43.39;45083.34;5088708;28;20455;-57
2023/12/25 09:37:36;;;;;;;2.93;1.20;;;;;;;-143.84;43.28;45115.72;5088753;28;20820;-57
2023/12/25 09:40:03;;;;;;;0.90;0.80;;;;;;;-143.84;43.24;45110.00;5101361;28;20483;-57
2023/12/25 09:42:31;;;;;;;0.97;0.87;;;;;;;-143.84;43.53;45094.78;5096621;27;20474;-56
2023/12/25 09:44:58;;;;;;;1.50;1.13;;;;;;;-143.84;43.40;45098.56;5110567;27;20454;-56
2023/12/25 09:47:26;;;;;;;3.60;1.20;;;;;;;-143.84;43.60;45117.63;5095464;28;20472;-56
2023/12/25 09:49:56;;;;;;;1.43;0.90;;;;;;;-143.84;43.59;45108.09;5107964;28;20468;-56
2023/12/25 09:52:24;;;;;;;0.90;0.70;;;;;;;-143.84;43.22;45100.47;5110381;28;20995;-56
2023/12/25 09:54:52;;;;;;;2.50;1.30;;;;;;;-143.84;43.36;45098.56;5100587;28;20503;-56
2023/12/25 09:57:20;;;;;;;1.17;0.80;;;;;;;-143.84;43.05;45100.47;5091381;28;20448;-56
2023/12/25 09:59:52;;;;;;;0.90;0.70;;;;;;;-143.84;44.25;45098.56;5099613;28;20517;-58
2023/12/25 10:02:22;;;;;;;2.63;0.93;;;;;;;-143.84;42.43;45108.09;5101281;28;20444;-59
2023/12/25 10:04:50;;;;;;;0.90;0.70;;;;;;;-143.84;44.15;45115.72;5097444;28;20474;-57
2023/12/25 10:07:20;;;;;;;1.23;1.13;;;;;;;-143.84;41.34;45087.16;5097342;28;20482;-56
2023/12/25 10:09:48;;;;;;;0.80;0.40;;;;;;;-143.84;43.26;45079.53;5098732;28;21870;-56
2023/12/25 10:12:19;;;;;;;0.90;0.73;;;;;;;-143.84;42.13;45094.78;5096059;28;20444;-58
2023/12/25 10:14:46;;;;;;;0.80;0.50;;;;;;;-143.84;40.97;45075.72;5097669;27;20558;-59
2023/12/25 10:17:13;;;;;;;1.30;1.00;;;;;;;-143.84;40.32;45090.97;5098731;28;20444;-59
2023/12/25 10:19:51;;;;;;;0.90;0.70;;;;;;;-143.84;40.45;45102.38;5094647;28;20454;-59
2023/12/25 10:22:30;;;;;;;1.47;0.90;;;;;;;-143.84;40.03;45096.66;5093458;28;20530;-59
2023/12/25 10:25:05;;;;;;;11.57;1.20;;;;;;;-143.84;43.04;45071.91;5092228;28;20528;-59
2023/12/25 10:27:33;;;;;;;2.50;0.50;;;;;;;-143.84;41.51;45077.63;5100360;28;21091;-59
2023/12/25 10:30:03;;;;;;;1.40;1.03;;;;;;;-143.84;41.63;45083.34;5097716;27;20521;-59
2023/12/25 10:32:31;;;;;;;2.07;1.57;;;;;;;-143.84;43.39;45087.16;5094268;28;20524;-59
2023/12/25 10:35:11;;;;;;;1.10;0.87;;;;;;;-143.84;39.79;45098.56;5091077;28;20945;-59
2023/12/25 10:37:41;;;;;;;1.03;0.70;;;;;;;-143.84;41.93;45083.34;5094849;28;20443;-59
2023/12/25 10:40:20;;;;;;;1.07;0.70;;;;;;;-143.84;39.23;45047.16;5100444;27;20552;-59
2023/12/25 10:42:49;;;;;;;1.90;0.73;;;;;;;-143.84;39.81;45052.88;5096946;28;20458;-59
2023/12/25 10:45:21;;;;;;;0.90;0.70;;;;;;;-143.84;40.69;45090.97;5101724;28;20968;-59
2023/12/25 10:47:51;;;;;;;1.10;1.00;;;;;;;-143.84;38.55;45068.13;5097842;28;20487;-59
2023/12/25 10:50:20;;;;;;;1.13;0.73;;;;;;;-143.84;38.30;45098.56;5094715;28;21032;-59
2023/12/25 10:52:49;;;;;;;2.53;1.83;;;;;;;-143.84;38.78;45073.81;5093044;28;20459;-59
2023/12/25 10:55:23;;;;;;;1.17;0.80;;;;;;;-143.84;38.49;45068.13;5102322;28;21012;-59
2023/12/25 10:57:52;;;;;;;1.70;1.10;;;;;;;-143.84;42.60;45066.22;5100810;28;21080;-59
2023/12/25 11:00:21;;;;;;;0.83;0.50;;;;;;;-143.84;40.68;45050.97;5103382;28;20467;-59
2023/12/25 11:02:55;;;;;;;0.80;0.40;;;;;;;-143.84;36.34;45049.06;5098469;28;20523;-58
2023/12/25 11:05:22;;;;;;;0.80;0.50;;;;;;;-143.84;36.89;45068.13;5099860;28;20465;-58
2023/12/25 11:07:52;;;;;;;0.90;0.70;;;;;;;-143.84;37.53;45064.31;5099357;28;20482;-58
2023/12/25 11:10:20;;;;;;;0.80;0.40;;;;;;;-143.84;38.02;45068.13;5100991;28;20478;-59
2023/12/25 11:12:48;;;;;;;1.00;0.90;;;;;;;-143.84;42.42;45075.72;5099356;28;20466;-59
2023/12/25 11:15:15;;;;;;;1.00;0.60;;;;;;;-143.84;37.53;45073.81;5100273;28;20447;-59
2023/12/25 11:17:43;;;;;;;0.87;0.43;;;;;;;-143.84;36.41;45062.41;5098969;28;20509;-58
2023/12/25 11:20:11;;;;;;;0.80;0.50;;;;;;;-143.84;38.72;45087.16;5101653;28;20462;-58
2023/12/25 11:22:41;;;;;;;0.80;0.60;;;;;;;-143.84;36.72;45049.06;5100266;28;20455;-59
2023/12/25 11:25:15;;;;;;;1.90;0.83;;;;;;;-143.84;39.25;45043.34;5098795;28;21014;-59
2023/12/25 11:27:43;;;;;;;0.90;0.67;;;;;;;-143.84;42.83;45043.34;5100927;28;20507;-59
2023/12/25 11:30:12;;;;;;;0.80;0.50;;;;;;;-143.84;36.62;45041.44;5102880;28;20451;-59
2023/12/25 11:32:45;;;;;;;1.00;0.60;;;;;;;-143.84;36.22;45028.13;5103357;28;20446;-59
2023/12/25 11:35:13;;;;;;;0.90;0.53;;;;;;;-143.84;35.90;45050.97;5100286;28;20882;-58
2023/12/25 11:37:40;;;;;;;1.60;0.77;;;;;;;-143.84;38.34;45033.84;5101769;28;20509;-58
2023/12/25 11:40:08;;;;;;;1.00;0.63;;;;;;;-143.84;37.24;45035.75;5099577;28;20467;-59
2023/12/25 11:42:38;;;;;;;1.10;0.97;;;;;;;-143.84;41.81;45039.53;5101828;28;20920;-58
2023/12/25 11:45:08;;;;;;;1.40;0.70;;;;;;;-143.84;36.60;45037.66;5100486;28;20524;-59
2023/12/25 11:47:40;;;;;;;0.90;0.80;;;;;;;-143.84;34.99;45026.22;5095434;28;20905;-59
2023/12/25 11:50:10;;;;;;;3.83;3.50;;;;;;;-143.84;36.13;45037.66;5096713;28;20465;-59
2023/12/25 11:52:46;;;;;;;11.83;7.70;;;;;;;-143.84;35.19;45066.22;5100151;28;20453;-59
2023/12/25 11:55:15;;;;;;;66.53;26.53;;;;;;;-143.84;36.38;45060.50;5100156;28;20454;-59
2023/12/25 11:57:45;;;;;;;4.63;2.47;;;;;;;-143.84;35.43;45050.97;5105222;28;20826;-59